SWA2121 KOAK-KLAS
Flight info
| Callsign | SWA2121 |
|---|---|
| Flight time | 1h 13m |
| Altitude | 35000 |
| Route | CNDEL5 NTELL Q174 FLCHR COKTL4 |
| Aircraft | B738/M-SDE2E3FGHIRWXY/LB1 |
Departure
| Time | 2026-05-05 00:15 |
|---|---|
| Airport | San Francisco Bay Oakland International Airport (KOAK) |
Arrival
| Time | 2026-05-05 01:29 |
|---|---|
| Airport | Harry Reid International Airport (KLAS) |
| Time | Latitude | Longitude | Altitude | Speed | Heading |
|---|---|---|---|---|---|
| 2026-05-04 23:54 | 37.71153 | -122.21341 | 16 ft | 0 kts | 36° |
| 2026-05-05 00:02 | 37.71150 | -122.21344 | 7 ft | 3 kts | 36° |
| 2026-05-05 00:03 | 37.71135 | -122.21358 | 16 ft | 3 kts | 36° |
| 2026-05-05 00:03 | 37.71120 | -122.21373 | 19 ft | 3 kts | 31° |
| 2026-05-05 00:03 | 37.71102 | -122.21381 | 18 ft | 3 kts | 359° |
| 2026-05-05 00:03 | 37.71084 | -122.21376 | 16 ft | 3 kts | 329° |
| 2026-05-05 00:04 | 37.71078 | -122.21372 | 17 ft | 0 kts | 317° |
| 2026-05-05 00:10 | 37.71081 | -122.21377 | 16 ft | 4 kts | 311° |
| 2026-05-05 00:10 | 37.71083 | -122.21416 | 15 ft | 5 kts | 244° |
| 2026-05-05 00:10 | 37.71051 | -122.21437 | 16 ft | 6 kts | 198° |
| 2026-05-05 00:11 | 37.71010 | -122.21454 | 16 ft | 6 kts | 199° |
| 2026-05-05 00:11 | 37.70964 | -122.21500 | 17 ft | 9 kts | 226° |
| 2026-05-05 00:11 | 37.70916 | -122.21554 | 17 ft | 9 kts | 220° |
| 2026-05-05 00:11 | 37.70866 | -122.21603 | 18 ft | 9 kts | 219° |
| 2026-05-05 00:12 | 37.70816 | -122.21657 | 21 ft | 9 kts | 219° |
| 2026-05-05 00:12 | 37.70763 | -122.21712 | 20 ft | 11 kts | 220° |
| 2026-05-05 00:12 | 37.70695 | -122.21778 | 20 ft | 14 kts | 201° |
| 2026-05-05 00:12 | 37.70607 | -122.21737 | 20 ft | 16 kts | 129° |
| 2026-05-05 00:13 | 37.70528 | -122.21619 | 19 ft | 19 kts | 130° |
| 2026-05-05 00:13 | 37.70440 | -122.21488 | 16 ft | 20 kts | 130° |
| 2026-05-05 00:13 | 37.70331 | -122.21386 | 19 ft | 20 kts | 161° |
| 2026-05-05 00:13 | 37.70242 | -122.21362 | 18 ft | 0 kts | 188° |
| 2026-05-05 00:14 | 37.70213 | -122.21381 | 19 ft | 14 kts | 212° |
| 2026-05-05 00:14 | 37.70191 | -122.21503 | 16 ft | 20 kts | 317° |
| 2026-05-05 00:14 | 37.70392 | -122.21797 | 19 ft | 77 kts | 309° |
| 2026-05-05 00:15 | 37.70882 | -122.22543 | 13 ft | 141 kts | 311° |
| 2026-05-05 00:15 | 37.71645 | -122.23611 | 232 ft | 174 kts | 310° |
| 2026-05-05 00:15 | 37.72460 | -122.24683 | 1237 ft | 169 kts | 310° |
| 2026-05-05 00:15 | 37.73274 | -122.25781 | 2113 ft | 173 kts | 310° |
| 2026-05-05 00:16 | 37.74082 | -122.26901 | 2893 ft | 177 kts | 310° |
| 2026-05-05 00:16 | 37.74934 | -122.28076 | 3692 ft | 180 kts | 311° |
| 2026-05-05 00:16 | 37.75813 | -122.29245 | 4386 ft | 188 kts | 312° |
| 2026-05-05 00:16 | 37.76751 | -122.30471 | 4962 ft | 201 kts | 313° |
| 2026-05-05 00:17 | 37.77763 | -122.31710 | 5654 ft | 201 kts | 312° |
| 2026-05-05 00:17 | 37.78659 | -122.33055 | 6420 ft | 200 kts | 305° |
| 2026-05-05 00:17 | 37.79366 | -122.34557 | 6954 ft | 207 kts | 287° |
| 2026-05-05 00:17 | 37.79526 | -122.36410 | 7168 ft | 225 kts | 262° |
| 2026-05-05 00:18 | 37.79082 | -122.38293 | 7872 ft | 214 kts | 238° |
| 2026-05-05 00:18 | 37.78108 | -122.39625 | 8628 ft | 205 kts | 212° |
| 2026-05-05 00:18 | 37.76765 | -122.40302 | 8954 ft | 218 kts | 189° |
| 2026-05-05 00:18 | 37.75259 | -122.40719 | 9442 ft | 219 kts | 193° |
| 2026-05-05 00:19 | 37.73830 | -122.41132 | 10263 ft | 204 kts | 191° |
| 2026-05-05 00:19 | 37.72420 | -122.41272 | 10661 ft | 208 kts | 165° |
| 2026-05-05 00:19 | 37.71149 | -122.40435 | 10911 ft | 212 kts | 135° |
| 2026-05-05 00:19 | 37.70070 | -122.39122 | 11300 ft | 217 kts | 133° |
| 2026-05-05 00:20 | 37.68982 | -122.37772 | 11713 ft | 222 kts | 133° |
| 2026-05-05 00:20 | 37.67869 | -122.36390 | 12138 ft | 226 kts | 133° |
| 2026-05-05 00:20 | 37.66723 | -122.34969 | 12573 ft | 230 kts | 133° |
| 2026-05-05 00:20 | 37.65590 | -122.33561 | 13034 ft | 233 kts | 132° |
| 2026-05-05 00:21 | 37.64519 | -122.32026 | 13505 ft | 233 kts | 122° |
| 2026-05-05 00:21 | 37.63703 | -122.30268 | 13902 ft | 235 kts | 115° |
| 2026-05-05 00:21 | 37.62902 | -122.28468 | 14349 ft | 234 kts | 117° |
| 2026-05-05 00:21 | 37.62065 | -122.26729 | 14860 ft | 231 kts | 118° |
| 2026-05-05 00:22 | 37.61222 | -122.25011 | 15288 ft | 230 kts | 118° |
| 2026-05-05 00:22 | 37.60357 | -122.23309 | 15697 ft | 230 kts | 124° |
| 2026-05-05 00:22 | 37.59306 | -122.21803 | 16134 ft | 230 kts | 134° |
| 2026-05-05 00:22 | 37.58041 | -122.20563 | 16475 ft | 235 kts | 144° |
| 2026-05-05 00:23 | 37.56606 | -122.19368 | 16397 ft | 256 kts | 139° |
| 2026-05-05 00:23 | 37.55203 | -122.17882 | 16468 ft | 271 kts | 136° |
| 2026-05-05 00:23 | 37.53882 | -122.16121 | 16568 ft | 280 kts | 115° |
| 2026-05-05 00:23 | 37.53168 | -122.13856 | 16686 ft | 289 kts | 106° |
| 2026-05-05 00:24 | 37.52519 | -122.11328 | 16802 ft | 305 kts | 105° |
| 2026-05-05 00:24 | 37.51858 | -122.08703 | 16908 ft | 325 kts | 106° |
| 2026-05-05 00:24 | 37.51160 | -122.05963 | 17162 ft | 339 kts | 106° |
| 2026-05-05 00:24 | 37.50494 | -122.03397 | 17451 ft | 351 kts | 107° |
| 2026-05-05 00:25 | 37.49719 | -122.00452 | 17807 ft | 362 kts | 107° |
| 2026-05-05 00:25 | 37.48907 | -121.97409 | 18194 ft | 372 kts | 107° |
| 2026-05-05 00:25 | 37.48066 | -121.94285 | 18587 ft | 380 kts | 107° |
| 2026-05-05 00:25 | 37.47211 | -121.91128 | 18985 ft | 386 kts | 107° |
| 2026-05-05 00:26 | 37.46332 | -121.87899 | 19411 ft | 391 kts | 107° |
| 2026-05-05 00:26 | 37.45454 | -121.84689 | 20196 ft | 383 kts | 106° |
| 2026-05-05 00:26 | 37.44594 | -121.81560 | 21247 ft | 371 kts | 106° |
| 2026-05-05 00:26 | 37.43766 | -121.78553 | 22331 ft | 356 kts | 105° |
| 2026-05-05 00:27 | 37.42971 | -121.75672 | 23441 ft | 340 kts | 105° |
| 2026-05-05 00:27 | 37.42217 | -121.72940 | 24427 ft | 321 kts | 104° |
| 2026-05-05 00:27 | 37.41506 | -121.70363 | 25275 ft | 307 kts | 104° |
| 2026-05-05 00:27 | 37.40815 | -121.67837 | 25669 ft | 309 kts | 104° |
| 2026-05-05 00:28 | 37.40111 | -121.65255 | 25900 ft | 314 kts | 104° |
| 2026-05-05 00:28 | 37.39397 | -121.62644 | 26233 ft | 315 kts | 104° |
| 2026-05-05 00:28 | 37.38682 | -121.60040 | 26719 ft | 312 kts | 104° |
| 2026-05-05 00:28 | 37.37975 | -121.57478 | 27228 ft | 307 kts | 104° |
| 2026-05-05 00:29 | 37.37279 | -121.54958 | 27664 ft | 305 kts | 104° |
| 2026-05-05 00:29 | 37.36586 | -121.52450 | 27992 ft | 304 kts | 104° |
| 2026-05-05 00:29 | 37.35889 | -121.49924 | 28219 ft | 307 kts | 104° |
| 2026-05-05 00:29 | 37.35282 | -121.47349 | 28384 ft | 307 kts | 92° |
| 2026-05-05 00:30 | 37.35200 | -121.45579 | 28415 ft | 309 kts | 86° |
| 2026-05-05 00:30 | 37.35352 | -121.41932 | 28579 ft | 315 kts | 83° |
| 2026-05-05 00:30 | 37.35469 | -121.40102 | 28756 ft | 316 kts | 83° |
| 2026-05-05 00:30 | 37.35657 | -121.37352 | 29130 ft | 315 kts | 83° |
| 2026-05-05 00:31 | 37.35852 | -121.34609 | 29538 ft | 313 kts | 83° |
| 2026-05-05 00:31 | 37.36047 | -121.31901 | 29867 ft | 312 kts | 83° |
| 2026-05-05 00:31 | 37.36245 | -121.29115 | 29654 ft | 327 kts | 83° |
| 2026-05-05 00:32 | 37.36675 | -121.23290 | 29841 ft | 337 kts | 83° |
| 2026-05-05 00:32 | 37.36900 | -121.20305 | 30079 ft | 338 kts | 83° |
| 2026-05-05 00:32 | 37.37123 | -121.17367 | 30287 ft | 339 kts | 83° |
| 2026-05-05 00:32 | 37.37346 | -121.14457 | 30486 ft | 339 kts | 83° |
| 2026-05-05 00:33 | 37.37575 | -121.11518 | 30689 ft | 339 kts | 83° |
| 2026-05-05 00:33 | 37.37808 | -121.08567 | 30895 ft | 339 kts | 83° |
| 2026-05-05 00:33 | 37.38046 | -121.05614 | 31072 ft | 339 kts | 83° |
| 2026-05-05 00:33 | 37.38293 | -121.02619 | 30895 ft | 351 kts | 83° |
| 2026-05-05 00:34 | 37.38520 | -120.99506 | 30791 ft | 361 kts | 89° |
| 2026-05-05 00:34 | 37.38103 | -120.96361 | 30804 ft | 370 kts | 109° |
| 2026-05-05 00:34 | 37.36796 | -120.93565 | 30990 ft | 376 kts | 129° |
| 2026-05-05 00:34 | 37.34776 | -120.91452 | 31121 ft | 386 kts | 147° |
| 2026-05-05 00:35 | 37.32241 | -120.90101 | 30941 ft | 402 kts | 159° |
| 2026-05-05 00:35 | 37.26771 | -120.88214 | 31049 ft | 413 kts | 162° |
| 2026-05-05 00:36 | 37.21148 | -120.86379 | 31176 ft | 421 kts | 160° |
| 2026-05-05 00:36 | 37.15750 | -120.83612 | 31384 ft | 424 kts | 164° |
| 2026-05-05 00:36 | 37.12952 | -120.82458 | 31465 ft | 424 kts | 149° |
| 2026-05-05 00:37 | 37.10677 | -120.80181 | 31552 ft | 419 kts | 126° |
| 2026-05-05 00:37 | 37.09200 | -120.77071 | 31691 ft | 417 kts | 110° |
| 2026-05-05 00:37 | 37.08371 | -120.73582 | 31788 ft | 418 kts | 98° |
| 2026-05-05 00:37 | 37.08244 | -120.69953 | 31871 ft | 420 kts | 83° |
| 2026-05-05 00:38 | 37.08600 | -120.66326 | 32014 ft | 421 kts | 82° |
| 2026-05-05 00:38 | 37.09447 | -120.59022 | 32198 ft | 426 kts | 82° |
| 2026-05-05 00:39 | 37.10286 | -120.51643 | 32394 ft | 431 kts | 82° |
| 2026-05-05 00:39 | 37.11088 | -120.44168 | 32601 ft | 435 kts | 83° |
| 2026-05-05 00:40 | 37.11873 | -120.36614 | 32790 ft | 439 kts | 83° |
| 2026-05-05 00:40 | 37.12264 | -120.32810 | 32893 ft | 441 kts | 83° |
| 2026-05-05 00:40 | 37.12654 | -120.28994 | 33070 ft | 441 kts | 83° |
| 2026-05-05 00:40 | 37.13044 | -120.25179 | 33234 ft | 441 kts | 83° |
| 2026-05-05 00:41 | 37.13431 | -120.21371 | 33396 ft | 441 kts | 83° |
| 2026-05-05 00:41 | 37.13818 | -120.17566 | 33554 ft | 441 kts | 84° |
| 2026-05-05 00:41 | 37.14206 | -120.13736 | 33724 ft | 441 kts | 84° |
| 2026-05-05 00:41 | 37.14588 | -120.09944 | 33886 ft | 441 kts | 84° |
| 2026-05-05 00:42 | 37.14973 | -120.06123 | 34043 ft | 440 kts | 84° |
| 2026-05-05 00:42 | 37.15356 | -120.02302 | 34193 ft | 440 kts | 84° |
| 2026-05-05 00:42 | 37.15736 | -119.98500 | 34332 ft | 439 kts | 84° |
| 2026-05-05 00:42 | 37.16115 | -119.94701 | 34472 ft | 439 kts | 84° |
| 2026-05-05 00:43 | 37.16491 | -119.90905 | 34610 ft | 438 kts | 84° |
| 2026-05-05 00:43 | 37.16863 | -119.87148 | 34752 ft | 437 kts | 84° |
| 2026-05-05 00:43 | 37.17237 | -119.83357 | 34886 ft | 436 kts | 85° |
| 2026-05-05 00:44 | 37.17980 | -119.75791 | 34955 ft | 438 kts | 85° |
| 2026-05-05 00:44 | 37.18720 | -119.68190 | 34979 ft | 441 kts | 85° |
| 2026-05-05 00:45 | 37.19463 | -119.60514 | 34967 ft | 445 kts | 85° |
| 2026-05-05 00:45 | 37.20207 | -119.52772 | 34975 ft | 449 kts | 85° |
| 2026-05-05 00:46 | 37.20952 | -119.44968 | 34968 ft | 453 kts | 85° |
| 2026-05-05 00:46 | 37.21700 | -119.37079 | 34964 ft | 457 kts | 85° |
| 2026-05-05 00:47 | 37.22449 | -119.29129 | 34958 ft | 461 kts | 86° |
| 2026-05-05 00:47 | 37.23199 | -119.21098 | 34930 ft | 466 kts | 86° |
| 2026-05-05 00:48 | 37.23950 | -119.12994 | 34935 ft | 469 kts | 86° |
| 2026-05-05 00:48 | 37.24701 | -119.04838 | 34915 ft | 473 kts | 86° |
| 2026-05-05 00:49 | 37.25454 | -118.96596 | 34885 ft | 477 kts | 86° |
| 2026-05-05 00:49 | 37.26206 | -118.88300 | 34869 ft | 481 kts | 86° |
| 2026-05-05 00:50 | 37.26961 | -118.79907 | 34852 ft | 485 kts | 86° |
| 2026-05-05 00:50 | 37.27713 | -118.71488 | 34791 ft | 489 kts | 87° |
| 2026-05-05 00:51 | 37.28398 | -118.62969 | 34749 ft | 492 kts | 88° |
| 2026-05-05 00:51 | 37.28720 | -118.58688 | 34545 ft | 492 kts | 88° |
| 2026-05-05 00:51 | 37.29036 | -118.54450 | 33977 ft | 492 kts | 88° |
| 2026-05-05 00:51 | 37.29360 | -118.50111 | 33143 ft | 497 kts | 87° |
| 2026-05-05 00:52 | 37.29681 | -118.45819 | 32471 ft | 498 kts | 87° |
| 2026-05-05 00:52 | 37.30010 | -118.41456 | 31837 ft | 497 kts | 86° |
| 2026-05-05 00:52 | 37.30335 | -118.37144 | 31250 ft | 495 kts | 86° |
| 2026-05-05 00:52 | 37.30658 | -118.32857 | 30899 ft | 490 kts | 85° |
| 2026-05-05 00:53 | 37.30977 | -118.28584 | 30819 ft | 493 kts | 85° |
| 2026-05-05 00:53 | 37.31617 | -118.19949 | 30736 ft | 499 kts | 86° |
| 2026-05-05 00:54 | 37.32256 | -118.11240 | 30715 ft | 502 kts | 86° |
| 2026-05-05 00:54 | 37.32891 | -118.02494 | 30699 ft | 505 kts | 86° |
| 2026-05-05 00:55 | 37.33524 | -117.93675 | 30668 ft | 507 kts | 86° |
| 2026-05-05 00:55 | 37.34153 | -117.84829 | 30672 ft | 510 kts | 87° |
| 2026-05-05 00:56 | 37.34780 | -117.75920 | 30671 ft | 513 kts | 87° |
| 2026-05-05 00:56 | 37.35405 | -117.66955 | 30665 ft | 516 kts | 87° |
| 2026-05-05 00:57 | 37.35714 | -117.62457 | 30670 ft | 517 kts | 87° |
| 2026-05-05 00:57 | 37.36331 | -117.53422 | 30671 ft | 519 kts | 88° |
| 2026-05-05 00:58 | 37.36943 | -117.44365 | 30672 ft | 521 kts | 88° |
| 2026-05-05 00:58 | 37.37551 | -117.35287 | 30666 ft | 522 kts | 88° |
| 2026-05-05 00:58 | 37.37574 | -117.30780 | 30659 ft | 517 kts | 102° |
| 2026-05-05 00:59 | 37.36729 | -117.26413 | 30701 ft | 507 kts | 116° |
| 2026-05-05 00:59 | 37.35204 | -117.22484 | 30676 ft | 498 kts | 129° |
| 2026-05-05 00:59 | 37.33048 | -117.19113 | 30702 ft | 488 kts | 140° |
| 2026-05-05 01:00 | 37.28385 | -117.12877 | 30681 ft | 491 kts | 140° |
| 2026-05-05 01:01 | 37.19701 | -117.00893 | 30503 ft | 484 kts | 139° |
| 2026-05-05 01:01 | 37.17457 | -116.97767 | 29947 ft | 481 kts | 139° |
| 2026-05-05 01:01 | 37.15209 | -116.94653 | 29077 ft | 484 kts | 139° |
| 2026-05-05 01:01 | 37.12938 | -116.91516 | 28088 ft | 488 kts | 138° |
| 2026-05-05 01:02 | 37.10649 | -116.88363 | 27118 ft | 491 kts | 139° |
| 2026-05-05 01:02 | 37.08123 | -116.85519 | 26151 ft | 486 kts | 148° |
| 2026-05-05 01:02 | 37.05348 | -116.83110 | 25231 ft | 485 kts | 150° |
| 2026-05-05 01:02 | 37.02528 | -116.80799 | 24574 ft | 481 kts | 150° |
| 2026-05-05 01:03 | 36.99741 | -116.78526 | 24054 ft | 475 kts | 150° |
| 2026-05-05 01:03 | 36.97004 | -116.76261 | 23824 ft | 473 kts | 150° |
| 2026-05-05 01:03 | 36.94263 | -116.73960 | 23731 ft | 477 kts | 149° |
| 2026-05-05 01:03 | 36.91559 | -116.71663 | 23686 ft | 474 kts | 149° |
| 2026-05-05 01:04 | 36.88878 | -116.69367 | 23668 ft | 469 kts | 149° |
| 2026-05-05 01:04 | 36.83472 | -116.64735 | 23674 ft | 469 kts | 150° |
| 2026-05-05 01:04 | 36.80781 | -116.62434 | 23651 ft | 467 kts | 150° |
| 2026-05-05 01:05 | 36.78109 | -116.60151 | 23665 ft | 466 kts | 150° |
| 2026-05-05 01:05 | 36.75430 | -116.57867 | 23659 ft | 465 kts | 150° |
| 2026-05-05 01:05 | 36.72797 | -116.55622 | 23471 ft | 457 kts | 150° |
| 2026-05-05 01:05 | 36.72544 | -116.55407 | 23430 ft | 456 kts | 150° |
| 2026-05-05 01:06 | 36.69476 | -116.52794 | 22648 ft | 452 kts | 150° |
| 2026-05-05 01:06 | 36.66857 | -116.50570 | 21801 ft | 452 kts | 150° |
| 2026-05-05 01:06 | 36.64337 | -116.48222 | 21108 ft | 455 kts | 140° |
| 2026-05-05 01:07 | 36.62183 | -116.45277 | 20972 ft | 462 kts | 134° |
| 2026-05-05 01:07 | 36.60103 | -116.42219 | 20837 ft | 461 kts | 134° |
| 2026-05-05 01:07 | 36.58034 | -116.39182 | 20714 ft | 460 kts | 135° |
| 2026-05-05 01:07 | 36.55959 | -116.36184 | 20674 ft | 459 kts | 135° |
| 2026-05-05 01:08 | 36.53890 | -116.33234 | 20674 ft | 458 kts | 135° |
| 2026-05-05 01:08 | 36.51762 | -116.30230 | 20676 ft | 459 kts | 136° |
| 2026-05-05 01:08 | 36.49661 | -116.27272 | 20677 ft | 459 kts | 136° |
| 2026-05-05 01:08 | 36.47579 | -116.24344 | 20677 ft | 459 kts | 136° |
| 2026-05-05 01:09 | 36.45411 | -116.21294 | 20684 ft | 459 kts | 136° |
| 2026-05-05 01:09 | 36.43300 | -116.18328 | 20686 ft | 459 kts | 136° |
| 2026-05-05 01:09 | 36.41220 | -116.15407 | 20529 ft | 451 kts | 136° |
| 2026-05-05 01:09 | 36.39149 | -116.12501 | 19923 ft | 451 kts | 136° |
| 2026-05-05 01:10 | 36.37081 | -116.09604 | 19318 ft | 450 kts | 136° |
| 2026-05-05 01:10 | 36.34981 | -116.06660 | 18690 ft | 444 kts | 135° |
| 2026-05-05 01:10 | 36.32950 | -116.03814 | 18097 ft | 438 kts | 135° |
| 2026-05-05 01:10 | 36.30969 | -116.01044 | 17423 ft | 433 kts | 135° |
| 2026-05-05 01:11 | 36.28945 | -115.98217 | 16744 ft | 429 kts | 135° |
| 2026-05-05 01:11 | 36.26974 | -115.95467 | 16118 ft | 426 kts | 135° |
| 2026-05-05 01:11 | 36.25033 | -115.92758 | 15825 ft | 425 kts | 135° |
| 2026-05-05 01:11 | 36.23150 | -115.89937 | 15486 ft | 424 kts | 132° |
| 2026-05-05 01:12 | 36.21358 | -115.87054 | 15140 ft | 422 kts | 131° |
| 2026-05-05 01:12 | 36.19586 | -115.84167 | 14782 ft | 420 kts | 131° |
| 2026-05-05 01:12 | 36.17808 | -115.81300 | 14447 ft | 418 kts | 132° |
| 2026-05-05 01:12 | 36.16040 | -115.78490 | 14115 ft | 409 kts | 132° |
| 2026-05-05 01:13 | 36.14323 | -115.75751 | 13773 ft | 397 kts | 129° |
| 2026-05-05 01:13 | 36.13011 | -115.72779 | 13407 ft | 391 kts | 114° |
| 2026-05-05 01:13 | 36.12086 | -115.69666 | 13051 ft | 381 kts | 113° |
| 2026-05-05 01:13 | 36.11207 | -115.66637 | 12737 ft | 364 kts | 114° |
| 2026-05-05 01:14 | 36.10366 | -115.63772 | 12391 ft | 346 kts | 114° |
| 2026-05-05 01:14 | 36.09551 | -115.61046 | 12040 ft | 329 kts | 114° |
| 2026-05-05 01:14 | 36.08762 | -115.58452 | 11650 ft | 315 kts | 115° |
| 2026-05-05 01:14 | 36.08006 | -115.55993 | 11261 ft | 302 kts | 115° |
| 2026-05-05 01:15 | 36.07267 | -115.53598 | 10889 ft | 292 kts | 116° |
| 2026-05-05 01:15 | 36.06566 | -115.51325 | 10786 ft | 273 kts | 116° |
| 2026-05-05 01:15 | 36.05915 | -115.49213 | 10760 ft | 252 kts | 116° |
| 2026-05-05 01:15 | 36.05314 | -115.47269 | 10731 ft | 230 kts | 116° |
| 2026-05-05 01:16 | 36.04774 | -115.45513 | 10694 ft | 207 kts | 118° |
| 2026-05-05 01:16 | 36.04277 | -115.43904 | 10629 ft | 203 kts | 119° |
| 2026-05-05 01:16 | 36.03714 | -115.42164 | 10583 ft | 235 kts | 118° |
| 2026-05-05 01:16 | 36.03122 | -115.40276 | 10394 ft | 239 kts | 117° |
| 2026-05-05 01:17 | 36.02529 | -115.38355 | 10123 ft | 236 kts | 117° |
| 2026-05-05 01:17 | 36.01941 | -115.36451 | 9807 ft | 237 kts | 117° |
| 2026-05-05 01:17 | 36.01477 | -115.34470 | 9421 ft | 247 kts | 103° |
| 2026-05-05 01:17 | 36.01325 | -115.32331 | 9049 ft | 252 kts | 98° |
| 2026-05-05 01:18 | 36.01239 | -115.30173 | 8786 ft | 246 kts | 98° |
| 2026-05-05 01:18 | 36.01161 | -115.28184 | 8775 ft | 239 kts | 98° |
| 2026-05-05 01:18 | 36.01063 | -115.26064 | 8834 ft | 255 kts | 98° |
| 2026-05-05 01:18 | 36.00953 | -115.23854 | 8802 ft | 259 kts | 99° |
| 2026-05-05 01:19 | 36.00839 | -115.21636 | 8795 ft | 258 kts | 99° |
| 2026-05-05 01:19 | 36.00721 | -115.19435 | 8753 ft | 253 kts | 99° |
| 2026-05-05 01:19 | 36.00602 | -115.17277 | 8232 ft | 253 kts | 99° |
| 2026-05-05 01:19 | 36.00479 | -115.15125 | 7944 ft | 249 kts | 99° |
| 2026-05-05 01:20 | 36.00357 | -115.12996 | 7840 ft | 249 kts | 99° |
| 2026-05-05 01:20 | 36.00233 | -115.10871 | 7806 ft | 253 kts | 98° |
| 2026-05-05 01:20 | 36.00106 | -115.08669 | 7807 ft | 253 kts | 99° |
| 2026-05-05 01:20 | 35.99981 | -115.06509 | 7793 ft | 250 kts | 99° |
| 2026-05-05 01:21 | 35.99906 | -115.04362 | 7793 ft | 251 kts | 95° |
| 2026-05-05 01:21 | 35.99897 | -115.02198 | 7803 ft | 252 kts | 95° |
| 2026-05-05 01:21 | 35.99862 | -115.00048 | 7786 ft | 250 kts | 96° |
| 2026-05-05 01:21 | 35.99886 | -114.97913 | 7702 ft | 254 kts | 94° |
| 2026-05-05 01:22 | 35.99908 | -114.95745 | 7727 ft | 249 kts | 94° |
| 2026-05-05 01:22 | 35.99927 | -114.93629 | 7547 ft | 246 kts | 94° |
| 2026-05-05 01:22 | 35.99937 | -114.91483 | 7131 ft | 247 kts | 94° |
| 2026-05-05 01:22 | 35.99948 | -114.89376 | 6666 ft | 249 kts | 92° |
| 2026-05-05 01:23 | 35.99950 | -114.87234 | 6248 ft | 249 kts | 89° |
| 2026-05-05 01:23 | 36.00588 | -114.85248 | 5773 ft | 255 kts | 47° |
| 2026-05-05 01:23 | 36.02034 | -114.84081 | 5337 ft | 248 kts | 12° |
| 2026-05-05 01:23 | 36.03672 | -114.84056 | 5216 ft | 230 kts | 337° |
| 2026-05-05 01:24 | 36.04993 | -114.85083 | 5157 ft | 227 kts | 306° |
| 2026-05-05 01:24 | 36.05917 | -114.86643 | 5089 ft | 225 kts | 298° |
| 2026-05-05 01:24 | 36.06818 | -114.88227 | 5032 ft | 223 kts | 300° |
| 2026-05-05 01:24 | 36.07699 | -114.89761 | 4934 ft | 212 kts | 293° |
| 2026-05-05 01:25 | 36.08324 | -114.91373 | 4863 ft | 206 kts | 286° |
| 2026-05-05 01:25 | 36.08523 | -114.93077 | 4785 ft | 199 kts | 264° |
| 2026-05-05 01:25 | 36.08334 | -114.94768 | 4596 ft | 198 kts | 253° |
| 2026-05-05 01:25 | 36.08012 | -114.96393 | 4436 ft | 191 kts | 254° |
| 2026-05-05 01:26 | 36.07688 | -114.97930 | 4304 ft | 181 kts | 251° |
| 2026-05-05 01:26 | 36.07405 | -114.99468 | 3898 ft | 188 kts | 261° |
| 2026-05-05 01:26 | 36.07395 | -115.01092 | 3601 ft | 187 kts | 268° |
| 2026-05-05 01:26 | 36.07426 | -115.02648 | 3480 ft | 175 kts | 265° |
| 2026-05-05 01:27 | 36.07441 | -115.04120 | 3344 ft | 171 kts | 266° |
| 2026-05-05 01:27 | 36.07448 | -115.05620 | 3162 ft | 179 kts | 266° |
| 2026-05-05 01:27 | 36.07435 | -115.07121 | 2921 ft | 174 kts | 263° |
| 2026-05-05 01:27 | 36.07398 | -115.08570 | 2626 ft | 164 kts | 266° |
| 2026-05-05 01:28 | 36.07392 | -115.09977 | 2595 ft | 166 kts | 266° |
| 2026-05-05 01:28 | 36.07374 | -115.11401 | 2289 ft | 164 kts | 262° |
| 2026-05-05 01:28 | 36.07377 | -115.12766 | 2067 ft | 152 kts | 264° |
| 2026-05-05 01:28 | 36.07359 | -115.13943 | 2099 ft | 116 kts | 269° |
| 2026-05-05 01:29 | 36.07431 | -115.14503 | 2120 ft | 22 kts | 300° |
| 2026-05-05 01:29 | 36.07459 | -115.14561 | 2121 ft | 0 kts | 300° |
| 2026-05-05 01:29 | 36.07470 | -115.14586 | 2124 ft | 8 kts | 299° |
| 2026-05-05 01:29 | 36.07520 | -115.14648 | 2128 ft | 11 kts | 339° |
| 2026-05-05 01:30 | 36.07593 | -115.14649 | 2131 ft | 15 kts | 352° |
| 2026-05-05 01:30 | 36.07743 | -115.14664 | 2128 ft | 26 kts | 336° |
| 2026-05-05 01:30 | 36.07821 | -115.14816 | 2135 ft | 18 kts | 332° |
| 2026-05-05 01:30 | 36.07943 | -115.14836 | 2132 ft | 19 kts | 336° |
| 2026-05-05 01:31 | 36.08069 | -115.14909 | 2131 ft | 20 kts | 336° |
| 2026-05-05 01:31 | 36.08192 | -115.14977 | 2128 ft | 5 kts | 347° |
| 2026-05-05 01:31 | 36.08196 | -115.14976 | 2128 ft | 0 kts | 2° |
| 2026-05-05 01:31 | 36.08202 | -115.14976 | 2128 ft | 1 kts | 2° |
| 2026-05-05 01:32 | 36.08210 | -115.14976 | 2128 ft | 1 kts | 356° |
| 2026-05-05 01:32 | 36.08218 | -115.14979 | 2127 ft | 1 kts | 339° |
| 2026-05-05 01:32 | 36.08223 | -115.14982 | 2127 ft | 1 kts | 334° |
| 2026-05-05 01:32 | 36.08231 | -115.14991 | 2127 ft | 1 kts | 312° |
| 2026-05-05 01:33 | 36.08233 | -115.14995 | 2127 ft | 1 kts | 308° |
| 2026-05-05 01:33 | 36.08237 | -115.15001 | 2127 ft | 1 kts | 307° |
| 2026-05-05 01:33 | 36.08241 | -115.15008 | 2127 ft | 1 kts | 306° |
| 2026-05-05 01:33 | 36.08246 | -115.15017 | 2127 ft | 1 kts | 306° |
| 2026-05-05 01:34 | 36.08249 | -115.15022 | 2127 ft | 2 kts | 305° |
| 2026-05-05 01:34 | 36.08253 | -115.15030 | 2127 ft | 1 kts | 300° |
| 2026-05-05 01:34 | 36.08254 | -115.15032 | 2127 ft | 0 kts | 300° |